Terminal Aerodrome Forecast
Issued by NWS

Home | Current Version | Previous Version | Graphics & Text | Print | Product List | Glossary On
Versions: 1 2 3 4 5 6 7 8 9 10 11 12 13 14
000
FTUS43 KGRB 191100
TAFMTW
TAF
KMTW 191126Z 1912/2012 33005KT P6SM BKN028
     FM191400 30003KT P6SM BKN250
     FM200900 VRB03KT P6SM BKN020 BKN070=

USA.gov is the U.S. government's official web portal to all federal, state and local government web resources and services.